createdAt,value
2022-08-17T00:01:44.924Z,17.82
2022-08-17T00:04:21.629Z,17.84
2022-08-17T00:06:49.659Z,17.85
2022-08-17T00:09:18.336Z,17.82
2022-08-17T00:12:34.650Z,17.82
2022-08-17T00:14:36.346Z,17.80
2022-08-17T00:17:07.125Z,17.79
2022-08-17T00:19:34.150Z,17.79
2022-08-17T00:22:32.141Z,17.78
2022-08-17T00:24:50.645Z,17.77
2022-08-17T00:27:18.657Z,17.79
2022-08-17T00:29:46.034Z,17.81
2022-08-17T00:33:11.958Z,17.81
2022-08-17T00:35:05.235Z,17.77
2022-08-17T00:37:32.363Z,17.75
2022-08-17T00:39:59.396Z,17.74
2022-08-17T00:42:30.983Z,17.71
2022-08-17T00:44:59.073Z,17.70
2022-08-17T00:47:26.282Z,17.69
2022-08-17T00:49:54.070Z,17.68
2022-08-17T00:52:24.212Z,17.64
2022-08-17T00:54:54.857Z,17.63
2022-08-17T00:57:28.496Z,17.61
2022-08-17T01:00:06.762Z,17.55
2022-08-17T01:02:42.105Z,17.54
2022-08-17T01:05:19.747Z,17.49
2022-08-17T01:07:51.050Z,17.48
2022-08-17T01:10:58.841Z,17.47
2022-08-17T01:13:11.313Z,17.42
2022-08-17T01:15:41.511Z,17.36
2022-08-17T01:18:13.912Z,17.34
2022-08-17T01:20:48.203Z,17.29
2022-08-17T01:23:20.851Z,17.25
2022-08-17T01:25:54.170Z,17.22
2022-08-17T01:28:53.137Z,17.18
2022-08-17T01:31:10.638Z,17.10
2022-08-17T01:33:37.953Z,17.07
2022-08-17T01:36:07.326Z,17.01
2022-08-17T01:38:35.930Z,16.98
2022-08-17T01:41:08.054Z,16.96
2022-08-17T01:43:44.912Z,16.94
2022-08-17T01:46:17.082Z,16.92
2022-08-17T01:48:47.548Z,16.87
2022-08-17T01:51:16.076Z,16.87
2022-08-17T01:53:50.650Z,16.86
2022-08-17T01:56:21.380Z,16.86
2022-08-17T01:58:48.689Z,16.85
2022-08-17T02:01:20.928Z,16.83
2022-08-17T02:03:53.260Z,16.84
2022-08-17T02:06:27.802Z,16.82
2022-08-17T02:09:01.787Z,16.79
2022-08-17T02:11:33.300Z,16.77
2022-08-17T02:14:03.393Z,16.74
2022-08-17T02:16:38.235Z,16.70
2022-08-17T02:19:08.532Z,16.68
2022-08-17T02:21:37.314Z,16.66
2022-08-17T02:24:06.859Z,16.61
2022-08-17T02:26:33.929Z,16.57
2022-08-17T02:29:00.776Z,16.56
2022-08-17T02:31:27.597Z,16.56
2022-08-17T02:33:56.789Z,16.53
2022-08-17T02:36:31.927Z,16.52
2022-08-17T02:39:05.271Z,16.50
2022-08-17T02:41:33.120Z,16.52
2022-08-17T02:44:01.078Z,16.52
2022-08-17T02:46:28.537Z,16.53
2022-08-17T02:48:55.387Z,16.54
2022-08-17T02:51:22.615Z,16.55
2022-08-17T02:53:49.760Z,16.57
2022-08-17T02:56:17.061Z,16.55
2022-08-17T02:58:44.065Z,16.53
2022-08-17T03:01:11.142Z,16.54
2022-08-17T03:03:38.819Z,16.54
2022-08-17T03:06:07.735Z,16.56
2022-08-17T03:08:35.424Z,16.55
2022-08-17T03:11:02.261Z,16.52
2022-08-17T03:13:30.870Z,16.50
2022-08-17T03:15:58.182Z,16.47
2022-08-17T03:18:26.319Z,16.47
2022-08-17T03:20:55.729Z,16.47
2022-08-17T03:23:24.384Z,16.46
2022-08-17T03:25:52.754Z,16.40
2022-08-17T03:28:20.318Z,16.46
2022-08-17T03:30:47.541Z,16.48
2022-08-17T03:33:14.777Z,16.50
2022-08-17T03:35:41.857Z,16.48
2022-08-17T03:38:11.126Z,16.48
2022-08-17T03:40:56.674Z,16.45
2022-08-17T03:43:30.063Z,16.47
2022-08-17T03:46:27.273Z,16.51
2022-08-17T03:49:19.910Z,16.61
2022-08-17T03:52:05.372Z,16.67
2022-08-17T03:54:51.094Z,16.72
2022-08-17T03:57:19.274Z,16.69
2022-08-17T03:59:47.734Z,16.72
2022-08-17T04:02:20.789Z,16.74
2022-08-17T04:04:52.369Z,16.75
2022-08-17T04:07:22.032Z,16.80
2022-08-17T04:09:49.688Z,16.82
2022-08-17T04:12:22.321Z,16.81
2022-08-17T04:14:53.381Z,16.83
2022-08-17T04:17:24.687Z,16.87
2022-08-17T04:19:52.160Z,16.93
2022-08-17T04:22:30.249Z,16.97
2022-08-17T04:25:16.070Z,16.96
2022-08-17T04:27:42.906Z,17.02
2022-08-17T04:30:10.708Z,17.13
2022-08-17T04:33:05.090Z,17.21
2022-08-17T04:35:39.315Z,17.33
2022-08-17T04:38:11.137Z,17.48
2022-08-17T04:40:57.045Z,17.62
2022-08-17T04:43:26.794Z,17.76
2022-08-17T04:46:02.504Z,17.83
2022-08-17T04:48:36.168Z,17.96
2022-08-17T04:51:09.914Z,18.02
2022-08-17T04:53:38.126Z,18.10
2022-08-17T04:56:05.487Z,18.31
2022-08-17T04:58:32.749Z,18.61
2022-08-17T05:00:59.948Z,18.89
2022-08-17T05:03:28.345Z,19.14
2022-08-17T05:05:55.277Z,19.28
2022-08-17T05:08:22.591Z,19.47
2022-08-17T05:10:50.251Z,19.69
2022-08-17T05:13:19.853Z,19.93
2022-08-17T05:15:48.857Z,20.12
2022-08-17T05:18:16.763Z,20.27
2022-08-17T05:20:44.068Z,20.37
2022-08-17T05:23:13.751Z,20.54
2022-08-17T05:25:47.754Z,20.82
2022-08-17T05:28:16.808Z,21.18
2022-08-17T05:30:46.190Z,21.43
2022-08-17T05:33:25.625Z,21.58
2022-08-17T05:35:56.136Z,21.92
2022-08-17T05:38:26.171Z,22.04
2022-08-17T05:40:54.289Z,21.93
2022-08-17T05:43:24.351Z,21.74
2022-08-17T05:46:03.610Z,21.50
2022-08-17T05:48:39.983Z,21.26
2022-08-17T05:51:48.755Z,21.09
2022-08-17T05:54:27.068Z,20.93
2022-08-17T05:56:53.840Z,20.86
2022-08-17T05:59:36.391Z,20.82
2022-08-17T06:02:23.106Z,20.80
2022-08-17T06:05:08.705Z,20.93
2022-08-17T06:07:54.756Z,21.10
2022-08-17T06:10:44.218Z,21.34
2022-08-17T06:13:26.010Z,21.51
2022-08-17T06:16:33.071Z,21.69
2022-08-17T06:19:00.996Z,21.94
2022-08-17T06:21:34.249Z,22.17
2022-08-17T06:24:34.365Z,22.48
2022-08-17T06:27:10.180Z,22.98
2022-08-17T06:29:58.168Z,23.51
2022-08-17T06:32:25.686Z,23.98
2022-08-17T06:34:53.645Z,24.61
2022-08-17T06:37:31.977Z,25.10
2022-08-17T06:40:20.986Z,25.60
2022-08-17T06:43:05.025Z,26.30
2022-08-17T06:45:41.965Z,26.94
2022-08-17T06:48:15.337Z,27.57
2022-08-17T06:50:49.197Z,28.43
2022-08-17T06:53:59.980Z,29.17
2022-08-17T06:56:53.568Z,29.57
2022-08-17T06:59:54.374Z,29.53
2022-08-17T07:02:51.555Z,29.25
2022-08-17T07:05:24.500Z,28.78
2022-08-17T07:08:04.042Z,28.36
2022-08-17T07:10:37.382Z,28.10
2022-08-17T07:13:21.758Z,27.90
2022-08-17T07:15:56.421Z,27.81
2022-08-17T07:18:26.723Z,27.68
2022-08-17T07:20:59.941Z,27.56
2022-08-17T07:23:38.290Z,27.42
2022-08-17T07:26:06.294Z,27.34
2022-08-17T07:28:34.999Z,27.54
2022-08-17T07:31:04.750Z,27.90
2022-08-17T07:33:35.046Z,28.20
2022-08-17T07:36:02.440Z,28.57
2022-08-17T07:38:32.073Z,29.17
2022-08-17T07:41:05.063Z,29.58
2022-08-17T07:43:41.042Z,29.78
2022-08-17T07:46:42.395Z,29.88
2022-08-17T07:49:09.357Z,29.84
2022-08-17T07:51:45.831Z,29.69
2022-08-17T07:54:15.976Z,29.66
2022-08-17T07:56:45.630Z,29.89
2022-08-17T07:59:24.375Z,30.21
2022-08-17T08:01:58.103Z,30.35
2022-08-17T08:07:16.422Z,30.16
2022-08-17T08:10:00.870Z,30.15
2022-08-17T08:12:43.842Z,30.28
2022-08-17T08:15:33.302Z,30.62
2022-08-17T08:18:03.747Z,31.08
2022-08-17T08:20:55.332Z,31.07
2022-08-17T08:23:33.496Z,30.74
2022-08-17T08:26:18.587Z,30.16
2022-08-17T08:29:11.404Z,29.46
2022-08-17T08:32:08.619Z,28.98
2022-08-17T08:35:01.428Z,28.52
2022-08-17T08:37:43.675Z,28.37
2022-08-17T08:40:32.754Z,29.11
2022-08-17T08:43:08.969Z,30.51
2022-08-17T08:45:57.869Z,31.83
2022-08-17T08:49:00.921Z,33.11
2022-08-17T08:51:57.991Z,33.98
2022-08-17T08:54:31.411Z,34.66
2022-08-17T09:00:07.931Z,35.36
2022-08-17T09:02:44.025Z,35.45
2022-08-17T09:05:33.659Z,35.16
2022-08-17T09:08:25.481Z,34.64
2022-08-17T09:11:13.144Z,34.05
2022-08-17T09:14:17.143Z,33.26
2022-08-17T09:16:55.168Z,32.80
2022-08-17T09:19:36.738Z,33.07
2022-08-17T09:22:17.473Z,33.51
2022-08-17T09:24:54.694Z,33.99
2022-08-17T09:27:28.397Z,34.40
2022-08-17T09:30:00.775Z,34.55
2022-08-17T09:32:49.995Z,34.34
2022-08-17T09:35:24.151Z,33.97
2022-08-17T09:37:56.025Z,33.41
2022-08-17T09:40:32.990Z,32.68
2022-08-17T09:43:07.081Z,32.09
2022-08-17T09:45:51.219Z,31.25
2022-08-17T09:48:25.311Z,29.62
2022-08-17T09:51:36.233Z,28.18
2022-08-17T09:54:34.989Z,27.36
2022-08-17T09:57:31.790Z,26.64
2022-08-17T10:00:25.221Z,26.37
2022-08-17T10:03:10.256Z,26.15
2022-08-17T10:05:46.474Z,25.95
2022-08-17T10:08:23.032Z,25.67
2022-08-17T10:11:07.137Z,25.23
2022-08-17T10:13:41.334Z,24.68
2022-08-17T10:16:26.169Z,24.25
2022-08-17T10:19:02.589Z,23.97
2022-08-17T10:22:01.222Z,23.87
2022-08-17T10:25:21.067Z,24.37
2022-08-17T10:27:52.777Z,25.62
2022-08-17T10:30:23.735Z,26.44
2022-08-17T10:33:04.756Z,27.51
2022-08-17T10:35:44.098Z,28.25
2022-08-17T10:38:26.036Z,28.48
2022-08-17T10:41:02.250Z,28.71
2022-08-17T10:43:36.894Z,29.39
2022-08-17T10:46:31.238Z,30.05
2022-08-17T10:49:17.124Z,30.95
2022-08-17T10:51:50.036Z,31.80
2022-08-17T10:54:35.868Z,31.99
2022-08-17T10:57:23.096Z,32.10
2022-08-17T10:59:52.803Z,32.09
2022-08-17T11:02:19.741Z,31.61
2022-08-17T11:05:24.158Z,30.84
2022-08-17T11:08:17.696Z,30.39
2022-08-17T11:10:58.158Z,30.45
2022-08-17T11:13:34.351Z,30.15
2022-08-17T11:16:32.661Z,29.66
2022-08-17T11:19:21.340Z,29.19
2022-08-17T11:22:22.896Z,29.47
2022-08-17T11:24:53.655Z,30.32
2022-08-17T11:27:30.483Z,30.97
2022-08-17T11:30:12.331Z,31.27
2022-08-17T11:32:54.354Z,31.05
2022-08-17T11:35:21.863Z,31.14
2022-08-17T11:38:18.072Z,31.60
2022-08-17T11:41:09.812Z,32.13
2022-08-17T11:44:10.600Z,32.44
2022-08-17T11:47:18.186Z,32.37
2022-08-17T11:50:41.761Z,31.82
2022-08-17T11:53:38.071Z,31.05
2022-08-17T11:56:09.624Z,30.44
2022-08-17T11:58:45.051Z,29.67
2022-08-17T12:01:24.327Z,29.46
2022-08-17T12:03:57.097Z,29.58
2022-08-17T12:06:56.926Z,30.20
2022-08-17T12:09:28.597Z,31.49
2022-08-17T12:12:13.335Z,32.73
2022-08-17T12:15:10.492Z,33.71
2022-08-17T12:17:40.739Z,34.75
2022-08-17T12:20:19.765Z,35.68
2022-08-17T12:23:04.443Z,36.48
2022-08-17T12:25:56.893Z,36.21
2022-08-17T12:28:29.594Z,35.86
2022-08-17T12:31:01.758Z,35.11
2022-08-17T12:33:29.159Z,34.20
2022-08-17T12:36:05.560Z,33.69
2022-08-17T12:38:36.133Z,33.49
2022-08-17T12:41:25.069Z,32.81
2022-08-17T12:44:23.228Z,31.47
2022-08-17T12:47:10.780Z,30.54
2022-08-17T12:49:41.612Z,29.87
2022-08-17T12:52:26.035Z,29.39
2022-08-17T12:55:21.308Z,29.13
2022-08-17T12:57:54.343Z,28.88
2022-08-17T13:00:41.231Z,28.70
2022-08-17T13:03:23.947Z,28.51
2022-08-17T13:06:03.433Z,28.27
2022-08-17T13:08:48.066Z,28.17
2022-08-17T13:11:16.239Z,28.11
2022-08-17T13:13:52.054Z,28.03
2022-08-17T13:16:27.740Z,27.97
2022-08-17T13:19:06.906Z,27.91
2022-08-17T13:21:35.544Z,27.96
2022-08-17T13:24:17.452Z,27.92
2022-08-17T13:27:07.906Z,27.76
2022-08-17T13:29:44.304Z,27.61
2022-08-17T13:32:13.078Z,27.52
2022-08-17T13:35:12.390Z,27.53
2022-08-17T13:37:34.366Z,27.73
2022-08-17T13:40:16.230Z,27.72
2022-08-17T13:42:51.780Z,27.73
2022-08-17T13:45:36.126Z,27.75
2022-08-17T13:48:08.800Z,27.87
2022-08-17T13:50:49.313Z,27.84
2022-08-17T13:53:21.282Z,27.87
2022-08-17T13:55:58.398Z,27.98
2022-08-17T13:58:32.994Z,28.13
2022-08-17T14:01:38.470Z,28.24
2022-08-17T14:04:18.112Z,28.08
2022-08-17T14:07:12.532Z,27.95
2022-08-17T14:09:51.859Z,28.16
2022-08-17T14:12:21.947Z,28.37
2022-08-17T14:14:49.696Z,28.50
2022-08-17T14:17:16.672Z,28.58
2022-08-17T14:19:43.459Z,28.64
2022-08-17T14:22:27.038Z,28.63
2022-08-17T14:24:54.199Z,28.57
2022-08-17T14:27:21.858Z,28.43
2022-08-17T14:29:49.165Z,28.22
2022-08-17T14:32:21.211Z,27.85
2022-08-17T14:34:49.758Z,27.51
2022-08-17T14:37:18.323Z,27.25
2022-08-17T14:39:45.291Z,26.98
2022-08-17T14:42:12.644Z,26.54
2022-08-17T14:44:40.096Z,26.09
2022-08-17T14:47:11.984Z,25.67
2022-08-17T14:49:39.015Z,25.23
2022-08-17T14:52:06.242Z,24.80
2022-08-17T14:54:34.622Z,24.45
2022-08-17T14:57:23.384Z,24.31
2022-08-17T14:59:54.545Z,24.27
2022-08-17T15:02:29.507Z,24.31
2022-08-17T15:05:05.494Z,24.30
2022-08-17T15:07:32.566Z,24.43
2022-08-17T15:10:01.416Z,24.61
2022-08-17T15:12:33.309Z,24.81
2022-08-17T15:15:04.610Z,25.01
2022-08-17T15:17:44.430Z,25.13
2022-08-17T15:20:16.206Z,25.16
2022-08-17T15:22:45.543Z,25.08
2022-08-17T15:25:13.691Z,25.10
2022-08-17T15:27:41.735Z,25.09
2022-08-17T15:30:10.128Z,25.03
2022-08-17T15:32:39.619Z,24.93
2022-08-17T15:35:09.155Z,24.90
2022-08-17T15:37:36.454Z,24.85
2022-08-17T15:40:04.616Z,24.80
2022-08-17T15:42:31.790Z,24.65
2022-08-17T15:45:00.138Z,24.53
2022-08-17T15:47:27.065Z,24.40
2022-08-17T15:49:59.426Z,24.28
2022-08-17T15:52:32.071Z,24.23
2022-08-17T15:55:00.834Z,24.22
2022-08-17T15:57:28.208Z,24.23
2022-08-17T15:59:58.400Z,24.30
2022-08-17T16:03:44.649Z,24.38
2022-08-17T16:05:24.863Z,24.39
2022-08-17T16:07:53.166Z,24.45
2022-08-17T16:10:21.169Z,24.47
2022-08-17T16:12:49.686Z,24.56
2022-08-17T16:15:18.876Z,24.66
2022-08-17T16:17:45.682Z,24.70
2022-08-17T16:20:19.699Z,24.83
2022-08-17T16:22:49.494Z,24.90
2022-08-17T16:25:51.892Z,24.94
2022-08-17T16:28:16.608Z,24.90
2022-08-17T16:30:43.590Z,25.00
2022-08-17T16:33:11.755Z,25.01
2022-08-17T16:35:39.019Z,24.99
2022-08-17T16:38:06.977Z,24.99
2022-08-17T16:40:35.994Z,25.00
2022-08-17T16:43:04.619Z,25.00
2022-08-17T16:45:36.960Z,24.99
2022-08-17T16:48:04.558Z,24.95
2022-08-17T16:50:32.376Z,24.90
2022-08-17T16:53:09.066Z,24.84
2022-08-17T16:55:36.444Z,24.80
2022-08-17T16:58:05.584Z,24.76
2022-08-17T17:00:33.696Z,24.65
2022-08-17T17:03:19.498Z,24.66
2022-08-17T17:06:14.454Z,24.60
2022-08-17T17:08:48.549Z,24.54
2022-08-17T17:11:21.618Z,24.36
2022-08-17T17:13:54.198Z,24.21
2022-08-17T17:16:31.834Z,24.07
2022-08-17T17:19:10.376Z,23.86
2022-08-17T17:21:56.777Z,23.70
2022-08-17T17:25:05.583Z,23.41
2022-08-17T17:27:32.326Z,23.28
2022-08-17T17:30:10.144Z,23.12
2022-08-17T17:32:52.839Z,22.94
2022-08-17T17:35:34.947Z,22.83
2022-08-17T17:38:11.091Z,22.64
2022-08-17T17:40:41.931Z,22.45
2022-08-17T17:43:37.016Z,22.25
2022-08-17T17:46:30.796Z,21.97
2022-08-17T17:48:58.176Z,21.81
2022-08-17T17:52:09.075Z,21.64
2022-08-17T17:55:04.598Z,21.47
2022-08-17T17:57:59.649Z,21.32
2022-08-17T18:00:33.982Z,21.18
2022-08-17T18:03:16.432Z,21.07
2022-08-17T18:05:49.179Z,21.03
2022-08-17T18:08:32.052Z,20.94
2022-08-17T18:11:24.413Z,20.88
2022-08-17T18:14:16.437Z,20.85
2022-08-17T18:16:45.253Z,20.86
2022-08-17T18:19:21.054Z,20.87
2022-08-17T18:21:54.508Z,20.87
2022-08-17T18:24:39.879Z,20.87
2022-08-17T18:27:39.398Z,20.87
2022-08-17T18:30:28.882Z,20.81
2022-08-17T18:33:23.297Z,20.81
2022-08-17T18:35:58.908Z,20.83
2022-08-17T18:38:34.233Z,20.84
2022-08-17T18:41:19.790Z,20.83
2022-08-17T18:44:02.861Z,20.83
2022-08-17T18:46:36.800Z,20.84
2022-08-17T18:49:24.296Z,20.81
2022-08-17T18:52:15.762Z,20.82
2022-08-17T18:55:11.557Z,20.81
2022-08-17T18:57:48.449Z,20.79
2022-08-17T19:00:20.996Z,20.75
2022-08-17T19:02:52.244Z,20.74
2022-08-17T19:05:36.679Z,20.66
2022-08-17T19:08:30.532Z,20.60
2022-08-17T19:11:07.454Z,20.57
2022-08-17T19:13:40.212Z,20.55
2022-08-17T19:16:29.447Z,20.47
2022-08-17T19:19:00.110Z,20.45
2022-08-17T19:21:48.071Z,20.38
2022-08-17T19:24:19.486Z,20.35
2022-08-17T19:26:55.888Z,20.32
2022-08-17T19:29:50.738Z,20.26
2022-08-17T19:32:26.518Z,20.14
2022-08-17T19:34:55.065Z,20.13
2022-08-17T19:37:36.721Z,20.09
2022-08-17T19:40:20.307Z,20.07
2022-08-17T19:43:15.317Z,20.00
2022-08-17T19:45:58.383Z,19.94
2022-08-17T19:48:40.394Z,19.88
2022-08-17T19:51:17.986Z,19.84
2022-08-17T19:54:06.293Z,19.80
2022-08-17T19:56:54.535Z,19.65
2022-08-17T20:00:03.513Z,19.59
2022-08-17T20:02:56.355Z,19.57
2022-08-17T20:05:28.233Z,19.54
2022-08-17T20:08:01.200Z,19.47
2022-08-17T20:10:35.198Z,19.45
2022-08-17T20:13:11.090Z,19.43
2022-08-17T20:15:43.140Z,19.36
2022-08-17T20:18:19.072Z,19.30
2022-08-17T20:20:59.803Z,19.24
2022-08-17T20:23:36.312Z,19.22
2022-08-17T20:26:19.393Z,19.18
2022-08-17T20:29:07.633Z,19.13
2022-08-17T20:31:57.414Z,19.10
2022-08-17T20:34:33.738Z,19.11
2022-08-17T20:37:04.438Z,19.08
2022-08-17T20:39:47.021Z,19.05
2022-08-17T20:42:22.701Z,19.00
2022-08-17T20:44:53.533Z,18.96
2022-08-17T20:47:28.624Z,18.93
2022-08-17T20:50:07.187Z,18.86
2022-08-17T20:52:51.079Z,18.80
2022-08-17T20:55:51.166Z,18.78
2022-08-17T20:58:30.563Z,18.70
2022-08-17T21:00:59.004Z,18.63
2022-08-17T21:03:49.944Z,18.58
2022-08-17T21:06:18.435Z,18.57
2022-08-17T21:08:53.873Z,18.53
2022-08-17T21:12:02.765Z,18.54
2022-08-17T21:15:16.177Z,18.47
2022-08-17T21:18:08.169Z,18.45
2022-08-17T21:20:47.483Z,18.43
2022-08-17T21:23:17.303Z,18.40
2022-08-17T21:26:02.620Z,18.38
2022-08-17T21:28:59.933Z,18.34
2022-08-17T21:31:38.236Z,18.30
2022-08-17T21:34:14.983Z,18.23
2022-08-17T21:36:44.433Z,18.21
2022-08-17T21:39:33.126Z,18.17
2022-08-17T21:42:00.563Z,18.15
2022-08-17T21:44:32.289Z,18.14
2022-08-17T21:47:28.119Z,18.11
2022-08-17T21:49:56.238Z,18.10
2022-08-17T21:52:26.918Z,18.06
2022-08-17T21:54:58.498Z,18.06
2022-08-17T21:57:28.180Z,18.04
2022-08-17T21:59:59.841Z,18.00
2022-08-17T22:02:34.347Z,17.97
2022-08-17T22:05:12.323Z,17.95
2022-08-17T22:07:43.233Z,17.90
2022-08-17T22:10:39.382Z,17.80
2022-08-17T22:13:16.818Z,17.79
2022-08-17T22:15:49.804Z,17.75
2022-08-17T22:18:25.123Z,17.71
2022-08-17T22:20:55.237Z,17.68
2022-08-17T22:24:01.552Z,17.63
2022-08-17T22:27:03.658Z,17.62
2022-08-17T22:29:53.146Z,17.62
2022-08-17T22:32:45.489Z,17.56
2022-08-17T22:35:34.588Z,17.52
2022-08-17T22:38:19.609Z,17.49
2022-08-17T22:40:52.602Z,17.47
2022-08-17T22:43:26.457Z,17.43
2022-08-17T22:45:56.141Z,17.39
2022-08-17T22:48:27.892Z,17.38
2022-08-17T22:51:12.264Z,17.35
2022-08-17T22:54:06.304Z,17.32
2022-08-17T22:56:52.545Z,17.32
2022-08-17T22:59:34.338Z,17.25
2022-08-17T23:02:26.198Z,17.21
2022-08-17T23:04:55.693Z,17.22
2022-08-17T23:07:23.123Z,17.19
2022-08-17T23:09:52.439Z,17.18
2022-08-17T23:12:23.351Z,17.09
2022-08-17T23:14:57.141Z,17.08
2022-08-17T23:17:24.487Z,17.08
2022-08-17T23:19:51.893Z,17.08
2022-08-17T23:22:18.739Z,17.06
2022-08-17T23:24:49.877Z,17.03
2022-08-17T23:27:19.062Z,16.98
2022-08-17T23:29:47.202Z,16.95
2022-08-17T23:32:17.226Z,16.94
2022-08-17T23:34:47.168Z,16.93
2022-08-17T23:37:15.360Z,16.91
2022-08-17T23:39:45.059Z,16.92
2022-08-17T23:42:21.735Z,16.90
2022-08-17T23:44:49.465Z,16.91
2022-08-17T23:47:16.551Z,16.91
2022-08-17T23:49:43.501Z,16.87
2022-08-17T23:52:15.035Z,16.87
2022-08-17T23:54:46.688Z,16.87
2022-08-17T23:57:19.125Z,16.81
2022-08-17T23:59:46.362Z,16.81
